Have a Safe July 4th! 

Flight Track Log - Related Links

Times and Time Zones

All times are in EDT time to prevent confusion due to time zone crossing. See the EJM103 flight status page for this flight to view local times or setup timezone preferences in your user account.

Time Position Orientation Groundspeed Altitude Reporting Facility
EDT Latitude Longitude Course Direction KTS MPH feet Rate Location/Type
Fri 04:11:10 PM 38.1961 -122.2983 180° South 191 220 1,300  Level Oakland Center
Fri 04:12:12 PM 38.1803 -122.3611 252° West 195 224 3,900 2,732 Climbing Oakland Center
Fri 04:13:13 PM 38.1619 -122.4414 254° West 231 266 6,900 2,878 Climbing Oakland Center
Fri 04:14:15 PM 38.1092 -122.4983 220° Southwest 261 300 9,800 2,613 Climbing Oakland Center
Fri 04:15:00 PM 37.7615 -122.3125 108° East  Level FlightAware Approximate
Fri 04:15:17 PM 38.0386 -122.5444 207° Southwest 284 327 12,300  Level Oakland Center
Fri 04:16:00 PM 37.7164 -122.2000 180° South  Level FlightAware Approximate
Fri 04:16:18 PM 37.9564 -122.5711 194° South 316 364 14,900  Level Oakland Center
Fri 04:17:20 PM 37.8525 -122.5556 173° South 353 406 17,800 2,585 Climbing Oakland Center
Fri 04:18:21 PM 37.7761 -122.4869 145° Southeast 349 402 20,200 2,098 Climbing Oakland Center
Fri 04:19:23 PM 37.7058 -122.3997 136° Southeast 356 410 22,100 1,902 Climbing Oakland Center
Fri 04:20:24 PM 37.6156 -122.2881 136° Southeast 378 435 24,100 1,707 Climbing Oakland Center
Fri 04:21:26 PM 37.5344 -122.1897 136° Southeast 404 465 25,600 1,548 Climbing Oakland Center
Fri 04:22:28 PM 37.4508 -122.0889 136° Southeast 417 480 27,300 1,756 Climbing Oakland Center
Fri 04:23:29 PM 37.3675 -121.9889 136° Southeast 417 480 29,200 1,610 Climbing Oakland Center
Fri 04:24:31 PM 37.2844 -121.8867 136° Southeast 420 483 30,600 1,463 Climbing Oakland Center
Fri 04:25:32 PM 37.1942 -121.7797 137° Southeast 421 484 32,200 1,317 Climbing Oakland Center
Fri 04:26:34 PM 37.1108 -121.6794 136° Southeast 419 482 33,300 1,122 Climbing Oakland Center
Fri 04:27:35 PM 37.0125 -121.5653 137° Southeast 425 489 34,500 829 Climbing Oakland Center
Fri 04:28:37 PM 36.9278 -121.4614 136° Southeast 427 491 35,000 195 Climbing Oakland Center
Fri 04:29:38 PM 36.8403 -121.3572 136° Southeast 435 501 34,900  Descending Oakland Center
Fri 04:30:40 PM 36.7636 -121.2656 136° Southeast 431 496 35,000 48 Climbing Oakland Center
Fri 04:31:42 PM 36.6594 -121.1431 137° Southeast 429 494 35,000  Level Oakland Center
Fri 04:32:43 PM 36.5719 -121.0419 137° Southeast 428 493 35,000  Level Oakland Center
Fri 04:33:45 PM 36.4861 -120.9389 136° Southeast 427 491 35,000  Level Oakland Center
Fri 04:34:46 PM 36.3983 -120.8367 137° Southeast 430 495 35,000  Level Oakland Center
Fri 04:35:48 PM 36.3131 -120.7333 136° Southeast 428 493 35,000  Level Oakland Center
Fri 04:36:49 PM 36.2839 -120.5833 104° East 451 519 35,000 -49 Level Oakland Center
Fri 04:37:51 PM 36.2572 -120.4353 103° East 441 507 34,900  Descending Oakland Center
Fri 04:38:53 PM 36.1689 -120.3364 138° Southeast 430 495 35,000  Climbing Oakland Center
Fri 04:39:54 PM 36.0442 -120.2522 151° Southeast 424 488 34,900  Descending Oakland Center
Fri 04:40:56 PM 35.9389 -120.1792 151° Southeast 430 495 35,000 49 Climbing Oakland Center
Fri 04:41:57 PM 35.8339 -120.1056 150° Southeast 432 497 35,000  Level Oakland Center
Fri 04:42:59 PM 35.7286 -120.0328 151° Southeast 431 496 35,000  Level Oakland Center
Fri 04:44:01 PM 35.6242 -119.9594 150° Southeast 433 498 35,000 -387 Level Los Angeles Center
Fri 04:45:03 PM 35.5233 -119.8706 144° Southeast 441 507 34,200 -864 Descending Los Angeles Center
Fri 04:46:06 PM 35.4181 -119.7808 145° Southeast 455 524 33,200 -1,104 Descending Los Angeles Center
Fri 04:47:08 PM 35.3144 -119.6911 145° Southeast 455 524 31,900 -1,548 Descending Los Angeles Center
Fri 04:48:10 PM 35.1942 -119.5881 145° Southeast 440 506 30,000 -1,645 Descending Los Angeles Center
Fri 04:49:12 PM 35.1017 -119.5075 145° Southeast 414 476 28,500 -1,452 Descending Los Angeles Center
Fri 04:50:14 PM 35.0119 -119.4322 145° Southeast 394 453 27,000 -1,452 Descending Los Angeles Center
Fri 04:51:16 PM 34.9239 -119.3569 145° Southeast 388 447 25,500 -1,412 Descending Los Angeles Center
Fri 04:52:30 PM 34.8331 -119.2783 145° Southeast 396 456 23,800 -1,620 Descending Los Angeles Center
Fri 04:53:33 PM 34.7219 -119.1847 145° Southeast 403 464 21,800 -1,824 Descending Los Angeles Center
Fri 04:54:35 PM 34.6228 -119.1042 146° Southeast 393 452 20,000 -1,597 Descending Los Angeles Center
Fri 04:55:37 PM 34.5383 -119.0333 145° Southeast 368 423 18,500 -1,452 Descending Los Angeles Center
Fri 04:56:39 PM 34.4578 -118.9661 145° Southeast 352 405 17,000 -1,548 Descending Los Angeles Center
Fri 04:57:41 PM 34.3653 -118.8881 145° Southeast 337 388 15,300 -1,500 Descending Los Angeles Center
Fri 04:58:43 PM 34.2772 -118.8514 161° South 333 383 13,900 -1,344 Descending Los Angeles Center
Fri 04:59:46 PM 34.1897 -118.8192 163° South 329 379 12,500 -1,392 Descending Los Angeles Center
Fri 05:00:48 PM 34.1047 -118.7872 163° South 321 369 11,000 -1,210 Descending Los Angeles Center
Fri 05:01:50 PM 34.0403 -118.7100 135° Southeast 288 331 10,000 -677 Descending Los Angeles Center
Fri 05:02:52 PM 34.0256 -118.6144 101° East 293 337 9,600 -732 Descending Los Angeles Center
Fri 05:03:53 PM 34.0178 -118.5331 97° East 288 331 8,500 -1,258 Descending Los Angeles Center
Fri 05:04:56 PM 34.0131 -118.4219 93° East 274 315 7,000 -816 Descending Los Angeles Center
Fri 05:05:58 PM 34.0211 -118.3453 83° East 247 284 6,800 -677 Descending Los Angeles Center
Fri 05:07:00 PM 34.0253 -118.2775 86° East 213 245 5,600 -1,306 Descending Los Angeles Center
Fri 05:08:02 PM 34.0056 -118.2269 115° Southeast 204 235 4,100 -1,392 Descending Los Angeles Center
Fri 05:09:05 PM 33.9667 -118.2533 209° Southwest 216 249 2,700 -1,248 Descending Los Angeles Center
Fri 05:10:07 PM 33.9608 -118.3242 264° West 190 219 1,500 -919 Descending Los Angeles Center
Fri 05:11:09 PM 33.9569 -118.3689 264° West 157 181 800 -629 Descending Los Angeles Center
Fri 05:12:11 PM 33.9519 -118.4061 261° West 129 148 200 -581 Descending Los Angeles Center
Fri 05:14:00 PM 33.9425 -118.4081 228° Southwest  Level Estimated

Login

Don't have an account? Register now (free) for customized features, flight alerts, and more!